Main page
METAR-TAF:

METAR-TAF

Airports :

Doncaster Sheffield Airport

Doncaster, England

latitude: 53-29N, longitude: 001-00W, elevation: 17 m

Current weather observation

The report was made 26 minutes ago, at 08:50 UTC
Wind 8 kt from the West
Temperature 9°C
Humidity 76%
Pressure 1034 hPa
Visibility 10 km or more
Broken clouds at a height of 4000 ft

METAR: EGCN 260850Z 26008KT 9999 BKN040 09/05 Q1034

Time: 09:16 (09:16 UTC)

Forecast

The report was made 4 hours and 11 minutes ago, at 05:05 UTC
Forecast valid from 26 at 06 UTC to 27 at 06 UTC
Wind 8 kt from the West
Visibility 10 km or more
Scattered clouds at a height of 3500 ft

TAF: EGCN 260505Z 2606/2706 28008KT 9999 SCT035

Weather observations and forecasts of more than 4000 airports (METAR and TAF reports).

The available stations are represented by yellow and red dots on the map.

Hover mouse over dot to see the name of the station.

Then click to see weather observations and forecasts.

To change the map : click on the green buttons with a black cross to zoom in, on the green button with a dash to zoom out, or on the green arrows for adjacent maps.


METAR-TAF: